Time;durP1;ratioP1;P1;durP2;ratioP2;P2;SDS_P1;SDS_P2;PMS_P1;PMS_P2;Temp;Humidity;BMP_temperature;BMP_pressure;BME280_temperature;BME280_humidity;BME280_pressure;Samples;Min_cycle;Max_cycle;Signal;HPM_P1;HPM_P2
2020/12/25 00:02:25;;;;;;;8.35;5.07;;;;;;;4.33;80.88;98892.06;5098314;28;20098;-54
2020/12/25 00:04:51;;;;;;;16.25;5.90;;;;;;;4.40;80.50;98899.72;5098072;28;20060;-46
2020/12/25 00:07:17;;;;;;;12.40;5.07;;;;;;;4.36;80.70;98911.03;5096636;28;20451;-46
2020/12/25 00:09:43;;;;;;;8.18;3.22;;;;;;;4.34;80.77;98907.59;5097365;28;20044;-46
2020/12/25 00:12:09;;;;;;;7.70;3.85;;;;;;;4.38;80.68;98911.84;5096389;28;20043;-46
2020/12/25 00:14:35;;;;;;;3.47;2.63;;;;;;;4.28;80.92;98914.59;5097510;28;20048;-46
2020/12/25 00:17:01;;;;;;;9.55;3.53;;;;;;;4.29;80.71;98916.28;5096260;28;20040;-53
2020/12/25 00:19:27;;;;;;;13.15;5.28;;;;;;;4.30;80.75;98920.63;5097208;28;20055;-54
2020/12/25 00:21:54;;;;;;;5.95;2.83;;;;;;;4.39;79.89;98930.88;5097465;28;20079;-46
2020/12/25 00:24:19;;;;;;;4.78;3.13;;;;;;;4.36;79.69;98934.34;5097231;28;20344;-46
2020/12/25 00:26:45;;;;;;;4.00;2.70;;;;;;;4.37;80.13;98937.78;5096862;28;20059;-46
2020/12/25 00:29:11;;;;;;;10.25;4.20;;;;;;;4.40;80.28;98954.16;5096963;28;20425;-46
2020/12/25 00:31:40;;;;;;;6.38;3.50;;;;;;;4.34;80.28;98959.44;5097449;28;20051;-46
2020/12/25 00:34:07;;;;;;;10.40;3.90;;;;;;;4.31;80.56;98956.03;5097228;28;20322;-46
2020/12/25 00:36:35;;;;;;;11.50;5.30;;;;;;;4.27;80.91;98944.00;5095975;28;20500;-46
2020/12/25 00:39:03;;;;;;;7.43;3.63;;;;;;;4.32;80.87;98953.44;5096860;28;20452;-46
2020/12/25 00:41:28;;;;;;;7.72;4.03;;;;;;;4.20;80.93;98954.44;5095969;28;20404;-46
2020/12/25 00:43:55;;;;;;;9.68;3.88;;;;;;;4.19;81.34;98955.31;5096970;28;20051;-46
2020/12/25 00:46:21;;;;;;;6.57;3.65;;;;;;;4.29;81.25;98963.84;5096999;28;20439;-46
2020/12/25 00:48:47;;;;;;;8.73;3.88;;;;;;;4.27;81.26;98972.50;5096101;28;20068;-46
2020/12/25 00:51:20;;;;;;;12.88;5.35;;;;;;;4.31;81.30;98979.34;5096554;28;20455;-46
2020/12/25 00:53:47;;;;;;;14.20;6.82;;;;;;;4.24;81.77;98977.72;5096303;28;20040;-46
2020/12/25 00:56:16;;;;;;;13.25;7.55;;;;;;;4.34;81.22;98987.09;5062494;28;20047;-46
2020/12/25 00:58:46;;;;;;;7.47;5.00;;;;;;;4.29;81.40;98979.41;5047459;28;20097;-46
2020/12/25 01:01:13;;;;;;;6.55;3.75;;;;;;;4.35;81.44;98987.06;5079177;28;20143;-46
2020/12/25 01:03:40;;;;;;;4.55;3.10;;;;;;;4.24;81.69;98985.50;5096261;28;20135;-46
2020/12/25 01:06:15;;;;;;;6.18;3.75;;;;;;;4.25;81.74;98998.44;5095775;28;20348;-46
2020/12/25 01:08:42;;;;;;;4.75;2.70;;;;;;;4.32;82.08;98999.22;5095589;28;20063;-46
2020/12/25 01:11:08;;;;;;;5.28;3.00;;;;;;;4.33;81.84;99000.94;5096366;28;20486;-46
2020/12/25 01:13:34;;;;;;;3.92;2.38;;;;;;;4.40;82.04;99011.22;5095348;28;20051;-46
2020/12/25 01:16:15;;;;;;;6.68;3.60;;;;;;;4.43;81.37;99007.72;5096491;28;20052;-46
2020/12/25 01:18:44;;;;;;;9.05;4.65;;;;;;;4.38;81.84;99014.69;5096397;28;20044;-46
2020/12/25 01:21:10;;;;;;;14.68;6.63;;;;;;;4.41;81.82;99004.28;5096190;28;20055;-46
2020/12/25 01:23:36;;;;;;;9.95;5.38;;;;;;;4.56;80.83;99016.22;5095336;28;20393;-46
2020/12/25 01:26:02;;;;;;;5.82;3.75;;;;;;;4.47;81.06;99013.72;5096165;28;20050;-46
2020/12/25 01:28:28;;;;;;;4.72;2.85;;;;;;;4.49;81.29;99017.19;5095561;28;20043;-46
2020/12/25 01:30:53;;;;;;;3.80;2.40;;;;;;;4.43;81.23;99031.91;5095562;28;20051;-46
2020/12/25 01:33:19;;;;;;;6.63;4.70;;;;;;;4.39;81.62;99019.03;5096298;28;20043;-46
2020/12/25 01:35:45;;;;;;;9.35;5.72;;;;;;;4.33;81.74;99032.91;5096316;28;20056;-46
2020/12/25 01:38:11;;;;;;;5.80;4.45;;;;;;;4.38;82.01;99033.69;5095135;28;20052;-46
2020/12/25 01:40:36;;;;;;;6.22;3.47;;;;;;;4.41;81.89;99035.41;5096329;28;20059;-46
2020/12/25 01:43:02;;;;;;;7.75;3.53;;;;;;;4.38;82.13;99036.28;5095408;28;20040;-46
2020/12/25 01:45:28;;;;;;;6.60;3.67;;;;;;;4.41;82.30;99031.06;5095956;28;20351;-46
2020/12/25 01:47:54;;;;;;;4.00;3.00;;;;;;;4.29;82.32;99033.84;5096052;28;20128;-46
2020/12/25 01:50:20;;;;;;;3.35;2.28;;;;;;;4.33;82.29;99040.69;5095974;28;20047;-46
2020/12/25 01:52:47;;;;;;;4.28;2.70;;;;;;;4.33;81.96;99040.69;5095272;28;20048;-46
2020/12/25 01:55:12;;;;;;;1.90;1.50;;;;;;;4.33;82.02;99047.63;5095317;28;20048;-46
2020/12/25 01:57:39;;;;;;;3.67;2.00;;;;;;;4.30;82.30;99043.31;5099844;28;20429;-46
2020/12/25 02:00:05;;;;;;;3.15;1.92;;;;;;;4.36;82.04;99052.78;5099622;28;20044;-46
2020/12/25 02:02:37;;;;;;;2.90;1.73;;;;;;;4.36;82.10;99060.53;5083492;28;20051;-46
2020/12/25 02:05:03;;;;;;;5.43;2.55;;;;;;;4.32;82.31;99058.84;5099451;28;20067;-46
2020/12/25 02:07:29;;;;;;;4.45;2.40;;;;;;;4.28;82.36;99052.00;5099993;28;20078;-46
2020/12/25 02:09:55;;;;;;;5.85;2.75;;;;;;;4.31;82.56;99059.72;5099561;28;20066;-46
2020/12/25 02:12:21;;;;;;;2.95;1.90;;;;;;;4.29;82.41;99064.06;5065393;28;20436;-46
2020/12/25 02:14:47;;;;;;;4.38;2.00;;;;;;;4.31;82.86;99059.72;5099555;28;20044;-46
2020/12/25 02:17:12;;;;;;;3.92;2.20;;;;;;;4.31;82.62;99058.00;5098738;28;20058;-46
2020/12/25 02:19:38;;;;;;;3.90;1.85;;;;;;;4.28;82.50;99052.84;5099770;28;20060;-46
2020/12/25 02:22:04;;;;;;;3.88;2.53;;;;;;;4.34;82.47;99057.97;5099717;28;20406;-46
2020/12/25 02:24:30;;;;;;;3.17;2.25;;;;;;;4.31;82.36;99058.00;5099686;28;20428;-46
2020/12/25 02:26:56;;;;;;;2.25;1.90;;;;;;;4.38;82.66;99056.19;5098434;28;20127;-46
2020/12/25 02:29:22;;;;;;;3.00;1.92;;;;;;;4.44;82.10;99061.28;5099274;28;20048;-46
2020/12/25 02:31:47;;;;;;;2.60;1.83;;;;;;;4.40;82.36;99064.81;5099469;28;20067;-46
2020/12/25 02:34:13;;;;;;;2.83;2.15;;;;;;;4.40;82.65;99062.22;5099209;28;20056;-46
2020/12/25 02:36:39;;;;;;;2.83;2.40;;;;;;;4.45;82.35;99065.59;5099048;28;20051;-46
2020/12/25 02:39:05;;;;;;;5.38;3.97;;;;;;;4.46;82.09;99062.16;5098557;28;20051;-46
2020/12/25 02:41:31;;;;;;;4.38;3.30;;;;;;;4.46;82.33;99062.16;5098521;28;20053;-46
2020/12/25 02:43:57;;;;;;;3.70;3.25;;;;;;;4.51;82.16;99062.06;5099089;28;20356;-46
2020/12/25 02:46:22;;;;;;;5.28;3.38;;;;;;;4.51;82.42;99064.69;5099317;28;20063;-46
2020/12/25 02:48:48;;;;;;;4.22;3.17;;;;;;;4.47;82.75;99065.59;5098985;28;20393;-46
2020/12/25 02:51:18;;;;;;;3.22;2.50;;;;;;;4.47;82.89;99061.25;5099188;28;20052;-46
2020/12/25 02:53:44;;;;;;;7.00;3.58;;;;;;;4.54;82.39;99068.09;5099063;28;20062;-46
2020/12/25 02:56:17;;;;;;;3.70;2.75;;;;;;;4.54;82.33;99068.09;5099112;28;20059;-46
2020/12/25 02:58:43;;;;;;;5.10;3.63;;;;;;;4.45;82.73;99073.38;5098749;28;20353;-46
2020/12/25 03:01:10;;;;;;;5.60;3.13;;;;;;;4.55;82.85;99074.13;5099250;28;20108;-46
2020/12/25 03:03:36;;;;;;;3.75;3.45;;;;;;;4.50;82.76;99073.34;5097580;28;20056;-46
2020/12/25 03:06:02;;;;;;;3.67;3.30;;;;;;;4.42;83.21;99076.03;5098928;28;20105;-46
2020/12/25 03:08:28;;;;;;;5.50;4.10;;;;;;;4.35;83.67;99075.22;5097583;28;20071;-46
2020/12/25 03:10:53;;;;;;;3.47;3.08;;;;;;;4.42;83.83;99070.84;5098258;28;20101;-46
2020/12/25 03:13:19;;;;;;;4.10;2.92;;;;;;;4.42;83.99;99071.72;5098688;28;20040;-46
2020/12/25 03:15:46;;;;;;;7.50;4.97;;;;;;;4.57;83.65;99073.22;5097848;28;20055;-46
2020/12/25 03:18:12;;;;;;;4.45;3.63;;;;;;;4.52;83.34;99072.44;5098517;28;20089;-46
2020/12/25 03:20:38;;;;;;;4.90;3.33;;;;;;;4.50;83.74;99079.38;5098603;28;20056;-46
2020/12/25 03:23:03;;;;;;;4.53;3.30;;;;;;;4.51;83.47;99080.22;5098529;28;20356;-46
2020/12/25 03:25:29;;;;;;;4.55;3.30;;;;;;;4.49;83.44;99072.50;5098503;28;20052;-46
2020/12/25 03:27:55;;;;;;;4.22;3.30;;;;;;;4.52;83.55;99071.56;5098232;28;20040;-46
2020/12/25 03:30:21;;;;;;;3.15;2.85;;;;;;;4.47;83.82;99076.81;5097560;28;20112;-46
2020/12/25 03:32:46;;;;;;;3.90;3.53;;;;;;;4.51;83.50;99075.91;5098046;28;20036;-46
2020/12/25 03:35:12;;;;;;;5.90;3.15;;;;;;;4.46;83.91;99075.13;5098070;28;20097;-46
2020/12/25 03:37:38;;;;;;;4.32;3.83;;;;;;;4.56;84.05;99075.88;5098053;28;20040;-46
2020/12/25 03:40:04;;;;;;;5.47;4.00;;;;;;;4.59;83.70;99086.19;5097065;28;20462;-46
2020/12/25 03:42:30;;;;;;;6.28;4.45;;;;;;;4.50;83.70;99081.97;5080060;28;20123;-46
2020/12/25 03:44:55;;;;;;;5.72;3.78;;;;;;;4.54;83.91;99083.66;5098283;28;20044;-46
2020/12/25 03:47:25;;;;;;;5.18;4.28;;;;;;;4.50;84.28;99086.31;5097772;28;20052;-46
2020/12/25 03:49:54;;;;;;;5.80;4.90;;;;;;;4.47;84.47;99091.53;5097789;28;20102;-46
2020/12/25 03:52:20;;;;;;;4.15;3.72;;;;;;;4.49;84.67;99089.78;5097006;28;20044;-46
2020/12/25 03:54:46;;;;;;;6.18;4.70;;;;;;;4.49;84.24;99090.66;5097983;28;20052;-46
2020/12/25 03:57:12;;;;;;;5.45;4.93;;;;;;;4.56;84.06;99087.09;5098169;28;20401;-46
2020/12/25 03:59:37;;;;;;;7.07;4.05;;;;;;;4.59;84.24;99091.38;5096982;28;20063;-46
2020/12/25 04:02:03;;;;;;;5.25;4.10;;;;;;;4.65;83.61;99092.16;5097846;28;20123;-46
2020/12/25 04:04:29;;;;;;;5.45;3.78;;;;;;;4.62;83.54;99104.31;5097302;28;20453;-46
2020/12/25 04:06:55;;;;;;;4.65;4.20;;;;;;;4.65;83.72;99106.88;5097716;28;20113;-46
2020/12/25 04:09:21;;;;;;;6.03;4.60;;;;;;;4.65;83.49;99102.53;5096812;28;20436;-46
2020/12/25 04:11:48;;;;;;;6.85;4.43;;;;;;;4.62;83.50;99109.50;5097532;28;20047;-46
2020/12/25 04:14:15;;;;;;;5.65;4.22;;;;;;;4.54;83.37;99107.00;5097548;28;20135;-46
2020/12/25 04:16:40;;;;;;;6.47;3.95;;;;;;;4.60;83.87;99104.31;5097263;28;20036;-46
2020/12/25 04:19:06;;;;;;;5.40;4.60;;;;;;;4.58;83.41;99107.81;5097139;28;20063;-46
2020/12/25 04:21:32;;;;;;;6.40;3.72;;;;;;;4.58;83.47;99111.28;5097132;28;20047;-46
2020/12/25 04:23:58;;;;;;;7.95;3.95;;;;;;;4.62;83.62;99106.91;5097371;28;20044;-46
2020/12/25 04:26:23;;;;;;;5.20;3.63;;;;;;;4.56;83.33;99120.81;5097357;28;20372;-46
2020/12/25 04:28:49;;;;;;;4.15;3.72;;;;;;;4.58;83.23;99126.84;5097091;28;20101;-46
2020/12/25 04:31:15;;;;;;;5.80;3.55;;;;;;;4.52;83.19;99123.44;5096095;28;20051;-46
2020/12/25 04:33:40;;;;;;;5.85;3.40;;;;;;;4.47;83.49;99118.31;5096103;28;20043;-46
2020/12/25 04:36:06;;;;;;;5.20;3.20;;;;;;;4.51;83.28;99125.19;5097183;28;20054;-46
2020/12/25 04:38:32;;;;;;;3.88;3.28;;;;;;;4.48;82.64;99129.53;5096795;28;20169;-46
2020/12/25 04:40:58;;;;;;;6.05;3.72;;;;;;;4.38;82.99;99126.19;5097110;28;20101;-46
2020/12/25 04:43:25;;;;;;;3.40;2.83;;;;;;;4.45;83.10;99135.63;5079334;28;20105;-46
2020/12/25 04:45:52;;;;;;;3.42;2.95;;;;;;;4.38;83.21;99134.81;5096179;28;20058;-46
2020/12/25 04:48:18;;;;;;;3.30;3.00;;;;;;;4.35;83.29;99137.44;5079162;28;20377;-46
2020/12/25 04:50:43;;;;;;;4.53;3.42;;;;;;;4.41;83.37;99146.91;5096052;28;20054;-46
2020/12/25 04:53:09;;;;;;;4.32;3.28;;;;;;;4.39;83.37;99146.94;5078883;28;20105;-46
2020/12/25 04:55:35;;;;;;;3.63;3.30;;;;;;;4.41;83.29;99144.31;5096578;28;20055;-46
2020/12/25 04:58:01;;;;;;;3.97;3.58;;;;;;;4.37;83.33;99150.41;5097129;28;20039;-46
2020/12/25 05:00:27;;;;;;;5.43;3.63;;;;;;;4.37;83.28;99146.09;5096526;28;20104;-46
2020/12/25 05:02:53;;;;;;;4.18;3.00;;;;;;;4.39;83.07;99151.28;5096459;28;20333;-46
2020/12/25 05:05:27;;;;;;;4.07;2.95;;;;;;;4.34;83.49;99147.84;5096340;28;20067;-46
2020/12/25 05:07:53;;;;;;;3.97;3.38;;;;;;;4.35;83.20;99150.41;5095890;28;20048;-46
2020/12/25 05:10:18;;;;;;;5.00;3.40;;;;;;;4.31;83.49;99153.06;5096337;28;20051;-46
2020/12/25 05:12:48;;;;;;;4.78;4.00;;;;;;;4.33;83.32;99159.09;5096432;28;20048;-46
2020/12/25 05:15:14;;;;;;;4.65;3.30;;;;;;;4.29;83.51;99163.47;5096562;28;20048;-46
2020/12/25 05:17:40;;;;;;;6.63;3.10;;;;;;;4.26;83.57;99154.81;5096514;28;20048;-46
2020/12/25 05:20:06;;;;;;;4.53;2.78;;;;;;;4.34;83.20;99160.81;5096237;28;20432;-46
2020/12/25 05:22:32;;;;;;;3.55;3.00;;;;;;;4.36;83.30;99161.66;5096448;28;20055;-46
2020/12/25 05:25:06;;;;;;;3.00;2.80;;;;;;;4.40;83.26;99168.53;5096752;28;20048;-46
2020/12/25 05:27:32;;;;;;;5.47;3.08;;;;;;;4.21;83.27;99173.03;5095362;28;20139;-46
2020/12/25 05:30:01;;;;;;;3.22;2.75;;;;;;;4.28;83.45;99166.91;5097198;28;20059;-46
2020/12/25 05:32:31;;;;;;;3.42;3.03;;;;;;;4.22;83.59;99172.16;5101967;28;20050;-46
2020/12/25 05:34:57;;;;;;;3.10;2.65;;;;;;;4.27;83.64;99182.50;5103065;28;20160;-46
2020/12/25 05:37:36;;;;;;;3.00;2.50;;;;;;;4.37;83.04;99178.94;5102042;28;20060;-46
2020/12/25 05:40:11;;;;;;;8.23;3.67;;;;;;;4.43;83.18;99181.47;5101957;28;20062;-46
2020/12/25 05:42:47;;;;;;;3.42;2.63;;;;;;;4.45;83.20;99192.66;5102596;28;20048;-46
2020/12/25 05:45:19;;;;;;;2.15;1.95;;;;;;;4.52;83.13;99194.34;5102756;28;20059;-46
2020/12/25 05:48:02;;;;;;;3.22;2.67;;;;;;;4.57;82.46;99192.56;5102941;28;20059;-46
2020/12/25 05:50:28;;;;;;;;;;;;;;;4.33;83.12;99198.00;5103792;28;20040;-46
2020/12/25 05:52:54;;;;;;;3.70;3.30;;;;;;;4.08;83.63;99192.16;5102863;28;19919;-46
2020/12/25 05:55:19;;;;;;;5.05;4.00;;;;;;;4.29;84.20;99198.88;5085064;28;20058;-46
2020/12/25 05:57:49;;;;;;;4.70;3.72;;;;;;;4.28;84.00;99203.22;5101766;28;20100;-46
2020/12/25 06:00:15;;;;;;;5.40;3.80;;;;;;;4.34;84.14;99205.75;5103182;28;20054;-46
2020/12/25 06:02:40;;;;;;;4.35;3.55;;;;;;;4.48;83.69;99202.16;5101982;28;20421;-46
2020/12/25 06:05:06;;;;;;;5.60;3.72;;;;;;;4.40;83.55;99204.84;5101558;28;20364;-46
2020/12/25 06:07:32;;;;;;;4.50;3.60;;;;;;;4.48;83.32;99208.19;5084921;28;20047;-46
2020/12/25 06:09:59;;;;;;;4.72;3.28;;;;;;;4.62;82.83;99203.75;5068448;28;20048;-46
2020/12/25 06:12:40;;;;;;;5.75;4.10;;;;;;;4.55;82.44;99211.59;5102437;28;20074;-46
2020/12/25 06:15:06;;;;;;;7.55;4.10;;;;;;;4.53;83.00;99210.75;5101962;28;20063;-46
2020/12/25 06:17:31;;;;;;;5.88;4.00;;;;;;;4.50;82.64;99215.97;5101600;28;20086;-46
2020/12/25 06:20:02;;;;;;;6.97;4.50;;;;;;;4.57;82.46;99223.66;5101485;28;20105;-46
2020/12/25 06:22:38;;;;;;;4.93;4.10;;;;;;;4.56;82.71;99223.72;5101896;28;20131;-46
2020/12/25 06:25:08;;;;;;;4.20;3.53;;;;;;;4.55;82.52;99219.38;5101934;28;20048;-46
2020/12/25 06:27:35;;;;;;;4.93;4.20;;;;;;;4.61;82.40;99227.94;5084851;28;20440;-46
2020/12/25 06:30:03;;;;;;;6.22;3.75;;;;;;;4.69;82.24;99227.88;5101508;28;20367;-46
2020/12/25 06:32:28;;;;;;;6.03;4.57;;;;;;;4.69;82.33;99233.06;5102536;28;20044;-46
2020/12/25 06:34:56;;;;;;;4.65;4.07;;;;;;;4.64;82.14;99237.44;5084739;28;20092;-46
2020/12/25 06:37:26;;;;;;;6.07;4.38;;;;;;;4.64;82.48;99240.88;5102262;28;20075;-46
2020/12/25 06:39:53;;;;;;;5.93;4.53;;;;;;;4.61;82.75;99248.69;5101482;28;20333;-46
2020/12/25 06:42:37;;;;;;;5.82;4.75;;;;;;;4.61;82.39;99240.06;5100498;28;20128;-46
2020/12/25 06:45:04;;;;;;;10.40;5.00;;;;;;;4.62;82.67;99252.19;5099713;28;20328;-46
2020/12/25 06:47:35;;;;;;;6.78;5.55;;;;;;;4.56;82.54;99253.09;5098405;28;20055;-46
2020/12/25 06:50:08;;;;;;;10.85;6.80;;;;;;;4.49;83.38;99263.56;5099198;28;20048;-46
2020/12/25 06:52:50;;;;;;;5.90;4.90;;;;;;;4.53;83.52;99270.41;5097995;28;20048;-46
2020/12/25 06:55:15;;;;;;;20.92;9.95;;;;;;;4.50;83.46;99263.53;5083622;28;20379;-46
2020/12/25 06:57:41;;;;;;;100.90;42.30;;;;;;;4.50;83.51;99268.72;5098675;28;20044;-46
2020/12/25 07:00:07;;;;;;;40.65;19.90;;;;;;;4.50;83.20;99276.50;5081081;28;20486;-46
2020/12/25 07:02:32;;;;;;;16.17;9.73;;;;;;;4.43;83.11;99277.41;5099292;28;20048;-46
2020/12/25 07:05:02;;;;;;;25.25;17.15;;;;;;;4.51;83.12;99291.16;5097835;28;20063;-46
2020/12/25 07:07:31;;;;;;;13.95;10.30;;;;;;;4.42;83.11;99286.94;5098014;28;20040;-46
2020/12/25 07:09:56;;;;;;;7.55;5.28;;;;;;;4.43;82.68;99296.44;5098019;28;20127;-46
2020/12/25 07:12:23;;;;;;;12.52;9.02;;;;;;;4.49;82.48;99305.03;5064091;28;20079;-46
2020/12/25 07:14:49;;;;;;;7.35;5.80;;;;;;;4.49;82.73;99307.63;5098763;28;20130;-46
2020/12/25 07:17:15;;;;;;;9.45;6.18;;;;;;;4.42;82.76;99314.59;5098553;28;20040;-46
2020/12/25 07:19:43;;;;;;;10.43;5.45;;;;;;;4.32;82.70;99311.22;5098696;28;20052;-46
2020/12/25 07:22:09;;;;;;;11.18;5.93;;;;;;;4.30;82.79;99322.47;5098321;28;20063;-46
2020/12/25 07:24:39;;;;;;;23.23;14.13;;;;;;;4.28;82.69;99317.28;5097396;28;20127;-46
2020/12/25 07:27:11;;;;;;;32.75;17.98;;;;;;;4.38;82.40;99320.66;5080775;28;20045;-46
2020/12/25 07:29:37;;;;;;;10.77;6.90;;;;;;;4.31;82.37;99322.44;5098276;28;20075;-46
2020/12/25 07:32:03;;;;;;;20.38;12.98;;;;;;;4.15;82.86;99333.78;5098064;28;20436;-46
2020/12/25 07:34:29;;;;;;;21.42;13.63;;;;;;;4.20;83.00;99324.28;5098173;28;20044;-46
2020/12/25 07:36:55;;;;;;;13.82;9.27;;;;;;;4.27;82.83;99325.09;5097192;28;20051;-46
2020/12/25 07:39:24;;;;;;;12.40;7.93;;;;;;;4.27;82.61;99323.34;5098081;28;20044;-55
2020/12/25 07:41:50;;;;;;;14.45;9.70;;;;;;;4.29;82.62;99328.50;5098614;28;20052;-54
2020/12/25 07:44:17;;;;;;;20.10;9.60;;;;;;;4.34;82.00;99327.63;5097094;28;20051;-54
2020/12/25 07:46:43;;;;;;;17.95;9.55;;;;;;;4.32;82.39;99334.56;5080610;28;20040;-53
2020/12/25 07:49:09;;;;;;;30.90;17.85;;;;;;;4.31;82.30;99337.16;5097196;28;20105;-54
2020/12/25 07:51:35;;;;;;;27.63;17.80;;;;;;;4.37;82.26;99339.69;5097733;28;20399;-54
2020/12/25 07:54:01;;;;;;;17.27;11.50;;;;;;;4.33;82.19;99349.25;5096082;28;20082;-54
2020/12/25 07:56:31;;;;;;;26.75;18.17;;;;;;;4.30;82.06;99362.22;5097622;28;20059;-54
2020/12/25 07:58:58;;;;;;;12.13;9.07;;;;;;;4.38;82.31;99344.00;5096675;28;20508;-53
2020/12/25 08:01:28;;;;;;;9.90;5.63;;;;;;;4.40;81.17;99352.66;5097696;28;20036;-53
2020/12/25 08:03:56;;;;;;;7.95;5.25;;;;;;;4.28;81.02;99358.75;5096506;28;20060;-54
2020/12/25 08:06:23;;;;;;;14.27;11.40;;;;;;;4.21;81.47;99360.53;5096614;28;20052;-54
2020/12/25 08:09:05;;;;;;;8.23;4.53;;;;;;;4.19;81.99;99361.41;5097453;28;20044;-54
2020/12/25 08:11:31;;;;;;;7.68;5.30;;;;;;;4.26;81.63;99372.59;5082300;28;20489;-54
2020/12/25 08:13:59;;;;;;;9.02;4.80;;;;;;;4.28;81.34;99379.50;5096833;28;20090;-53
2020/12/25 08:16:25;;;;;;;5.57;4.28;;;;;;;4.29;81.32;99375.19;5079712;28;20044;-53
2020/12/25 08:18:51;;;;;;;4.15;3.25;;;;;;;4.25;81.20;99376.06;5079897;28;20234;-53
2020/12/25 08:21:17;;;;;;;6.55;3.97;;;;;;;4.28;81.30;99376.06;5096509;28;20078;-54
2020/12/25 08:23:43;;;;;;;6.43;4.65;;;;;;;4.26;81.42;99378.69;5097196;28;20054;-53
2020/12/25 08:26:09;;;;;;;7.78;5.20;;;;;;;4.29;81.72;99375.19;5096881;28;20135;-53
2020/12/25 08:28:34;;;;;;;30.40;13.13;;;;;;;4.39;81.72;99387.25;5096266;28;20040;-54
2020/12/25 08:31:16;;;;;;;40.33;17.73;;;;;;;4.37;81.09;99391.56;5097339;28;20051;-53
2020/12/25 08:34:00;;;;;;;13.68;6.75;;;;;;;4.37;81.27;99397.59;5097186;28;20054;-54
2020/12/25 08:36:27;;;;;;;7.40;5.05;;;;;;;4.34;81.66;99400.22;5096356;28;20056;-54
2020/12/25 08:38:53;;;;;;;7.65;5.47;;;;;;;4.40;81.50;99401.91;5097189;28;20068;-54
2020/12/25 08:41:26;;;;;;;8.02;6.03;;;;;;;4.37;81.12;99407.97;5096931;28;20090;-54
2020/12/25 08:43:52;;;;;;;24.50;12.00;;;;;;;4.28;80.86;99410.63;5095978;28;20432;-54
2020/12/25 08:46:24;;;;;;;6.97;4.40;;;;;;;4.27;80.54;99418.41;5096099;28;20048;-53
2020/12/25 08:48:51;;;;;;;6.43;3.90;;;;;;;4.13;80.46;99419.38;5096626;28;20367;-54
2020/12/25 08:51:17;;;;;;;7.93;4.63;;;;;;;4.19;80.44;99419.34;5096966;28;20105;-53
2020/12/25 08:53:50;;;;;;;6.85;4.47;;;;;;;4.17;79.94;99426.25;5095954;28;20067;-54
2020/12/25 08:56:22;;;;;;;;;;;;;;;3.85;80.97;99425.53;5097096;28;20047;-54
2020/12/25 08:58:58;;;;;;;6.80;5.10;;;;;;;3.93;80.56;99434.13;5096500;28;20395;-54
2020/12/25 09:01:23;;;;;;;7.68;4.28;;;;;;;3.92;80.96;99435.84;5096695;28;20052;-54
2020/12/25 09:03:49;;;;;;;9.85;4.75;;;;;;;3.92;80.88;99442.78;5096454;28;20403;-54
2020/12/25 09:06:15;;;;;;;7.65;4.32;;;;;;;3.95;80.98;99443.63;5095490;28;20048;-54
2020/12/25 09:08:41;;;;;;;6.80;3.72;;;;;;;4.04;80.86;99447.91;5095795;28;20052;-53
2020/12/25 09:11:20;;;;;;;5.25;3.50;;;;;;;4.01;80.54;99455.69;5097464;28;20147;-54
2020/12/25 09:13:46;;;;;;;6.55;3.88;;;;;;;4.06;80.06;99453.06;5096263;28;20051;-54
2020/12/25 09:16:12;;;;;;;5.65;3.50;;;;;;;3.97;80.45;99456.59;5096334;28;20119;-54
2020/12/25 09:18:38;;;;;;;9.90;3.67;;;;;;;4.03;80.43;99463.44;5096312;28;20058;-54
2020/12/25 09:21:06;;;;;;;9.70;4.70;;;;;;;4.01;79.83;99458.28;5095288;28;20036;-54
2020/12/25 09:23:32;;;;;;;11.43;5.38;;;;;;;3.98;79.91;99464.34;5096126;28;20051;-54
2020/12/25 09:25:58;;;;;;;10.32;6.82;;;;;;;4.11;80.13;99465.16;5096163;28;20047;-54
2020/12/25 09:28:24;;;;;;;17.40;12.80;;;;;;;4.09;80.09;99466.88;5096208;28;20048;-53
2020/12/25 09:30:54;;;;;;;9.10;5.75;;;;;;;4.13;79.72;99473.78;5096115;28;20329;-53
2020/12/25 09:33:20;;;;;;;8.10;5.30;;;;;;;4.19;79.92;99478.06;5096076;28;20135;-53
2020/12/25 09:35:47;;;;;;;11.13;6.60;;;;;;;4.21;79.51;99472.00;5078772;28;20067;-54
2020/12/25 09:38:13;;;;;;;9.20;5.32;;;;;;;4.19;79.81;99483.25;5079192;28;20074;-53
2020/12/25 09:40:38;;;;;;;14.65;8.70;;;;;;;4.31;79.61;99475.44;5095972;28;20048;-54
2020/12/25 09:43:04;;;;;;;13.80;7.55;;;;;;;4.36;79.29;99475.41;5095077;28;20044;-54
2020/12/25 09:45:30;;;;;;;40.78;23.77;;;;;;;4.37;78.94;99475.41;5095338;28;20060;-54
2020/12/25 09:47:56;;;;;;;71.55;42.22;;;;;;;4.36;78.84;99472.81;5096211;28;20048;-54
2020/12/25 09:50:21;;;;;;;28.85;18.02;;;;;;;4.34;79.12;99474.56;5095915;28;20055;-53
2020/12/25 09:52:47;;;;;;;46.92;28.75;;;;;;;4.38;79.06;99471.06;5095258;28;20136;-54
2020/12/25 09:55:13;;;;;;;33.28;19.02;;;;;;;4.38;78.83;99471.06;5096205;28;20063;-54
2020/12/25 09:57:39;;;;;;;58.47;33.88;;;;;;;4.35;79.01;99477.13;5096033;28;20105;-54
2020/12/25 10:00:09;;;;;;;34.40;20.58;;;;;;;4.39;78.87;99478.00;5096079;28;20453;-54
2020/12/25 10:02:35;;;;;;;37.50;22.45;;;;;;;4.43;79.18;99474.50;5096042;28;20055;-54
2020/12/25 10:05:02;;;;;;;19.08;12.60;;;;;;;4.43;78.88;99472.78;5095658;28;20059;-54
2020/12/25 10:07:28;;;;;;;14.48;10.60;;;;;;;4.35;79.50;99477.13;5096144;28;20395;-53
2020/12/25 10:09:54;;;;;;;8.20;6.15;;;;;;;4.36;78.84;99478.88;5095789;28;20400;-54
2020/12/25 10:12:20;;;;;;;13.35;7.47;;;;;;;4.39;79.00;99480.59;5095089;28;20080;-54
2020/12/25 10:14:46;;;;;;;9.88;5.63;;;;;;;4.31;78.81;99478.03;5096098;28;20078;-54
2020/12/25 10:17:11;;;;;;;23.83;10.35;;;;;;;4.32;79.09;99471.09;5096627;28;20051;-53
2020/12/25 10:19:37;;;;;;;16.25;6.78;;;;;;;4.30;78.99;99478.03;5099573;28;20066;-54
2020/12/25 10:22:03;;;;;;;17.77;8.25;;;;;;;4.21;79.01;99464.25;5099658;28;20052;-54
2020/12/25 10:24:29;;;;;;;118.22;39.28;;;;;;;4.24;78.92;99478.06;5099525;28;20068;-54
2020/12/25 10:26:55;;;;;;;92.43;47.63;;;;;;;4.30;78.96;99467.66;5098844;28;20048;-54
2020/12/25 10:29:21;;;;;;;28.35;16.13;;;;;;;4.16;78.86;99468.59;5098545;28;20440;-54
2020/12/25 10:31:49;;;;;;;16.17;9.93;;;;;;;4.26;78.42;99468.53;5099635;28;20052;-54
2020/12/25 10:34:15;;;;;;;38.95;14.27;;;;;;;4.28;78.98;99466.81;5099206;28;20478;-54
2020/12/25 10:36:41;;;;;;;30.17;12.80;;;;;;;4.34;78.67;99464.19;5099538;28;20403;-53
2020/12/25 10:39:08;;;;;;;17.05;7.75;;;;;;;4.45;77.95;99467.56;5098280;28;20353;-54
2020/12/25 10:41:34;;;;;;;46.85;14.75;;;;;;;4.42;77.94;99470.22;5098184;28;20036;-54
2020/12/25 10:44:00;;;;;;;20.02;8.75;;;;;;;4.37;78.02;99466.75;5099091;28;20040;-54
2020/12/25 10:46:26;;;;;;;20.60;12.43;;;;;;;4.36;78.25;99467.66;5081615;28;20048;-54
2020/12/25 10:48:52;;;;;;;22.23;14.60;;;;;;;4.31;78.31;99469.38;5099270;28;20109;-54
2020/12/25 10:51:19;;;;;;;54.30;29.80;;;;;;;4.26;78.15;99472.00;5098391;28;20062;-53
2020/12/25 10:53:45;;;;;;;38.00;19.88;;;;;;;4.34;78.26;99475.41;5098822;28;20052;-54
2020/12/25 10:56:24;;;;;;;19.65;8.85;;;;;;;4.36;77.87;99480.59;5099104;28;20062;-54
2020/12/25 10:58:50;;;;;;;11.68;7.05;;;;;;;4.31;77.98;99484.94;5098792;28;20051;-54
2020/12/25 11:01:23;;;;;;;54.38;19.65;;;;;;;4.40;78.11;99483.16;5098831;28;20047;-54
2020/12/25 11:03:49;;;;;;;55.15;22.50;;;;;;;4.36;77.83;99486.66;5098473;28;20060;-54
2020/12/25 11:06:15;;;;;;;49.13;22.83;;;;;;;4.31;77.63;99492.72;5097724;28;20100;-54
2020/12/25 11:08:41;;;;;;;36.50;19.17;;;;;;;4.29;77.80;99481.47;5098918;28;20048;-53
2020/12/25 11:11:07;;;;;;;34.83;16.17;;;;;;;4.24;78.07;99483.25;5098620;28;20040;-54
2020/12/25 11:13:33;;;;;;;63.78;32.78;;;;;;;4.27;77.88;99496.19;5098705;28;20048;-54
2020/12/25 11:15:59;;;;;;;57.65;31.55;;;;;;;4.28;77.74;99496.19;5098486;28;20040;-54
2020/12/25 11:18:25;;;;;;;118.00;65.03;;;;;;;4.19;77.51;99499.69;5098733;28;20135;-54
2020/12/25 11:20:51;;;;;;;76.05;45.72;;;;;;;4.14;77.82;99495.41;5097823;28;20056;-54
2020/12/25 11:23:17;;;;;;;66.20;48.33;;;;;;;4.05;78.18;99485.91;5098492;28;20352;-54
2020/12/25 11:25:42;;;;;;;27.70;14.90;;;;;;;4.10;77.99;99497.13;5098167;28;20340;-46
2020/12/25 11:28:08;;;;;;;26.25;12.75;;;;;;;3.99;78.19;99491.13;5096504;28;20115;-46
2020/12/25 11:30:34;;;;;;;30.25;11.77;;;;;;;4.08;78.23;99498.00;5097780;28;20036;-46
2020/12/25 11:33:00;;;;;;;23.10;11.68;;;;;;;4.06;78.04;99497.13;5098326;28;20040;-46
2020/12/25 11:35:25;;;;;;;29.83;13.95;;;;;;;4.08;77.98;99498.84;5080477;28;20349;-46
2020/12/25 11:37:51;;;;;;;55.60;29.85;;;;;;;4.07;77.22;99502.34;5098408;28;20054;-46